Time;durP1;ratioP1;P1;durP2;ratioP2;P2;SDS_P1;SDS_P2;PMS_P1;PMS_P2;Temp;Humidity;BMP_temperature;BMP_pressure;BME280_temperature;BME280_humidity;BME280_pressure;Samples;Min_cycle;Max_cycle;Signal;HPM_P1;HPM_P2
2022/03/14 00:03:58;;;;;;;0.90;0.90;;;;;;;8.41;89.93;99613.81;8353950;28;20057;-70
2022/03/14 00:08:01;;;;;;;0.90;0.90;;;;;;;8.34;89.56;99624.09;8356018;28;20049;-68
2022/03/14 00:12:04;;;;;;;1.02;0.80;;;;;;;8.31;89.47;99624.91;8371689;28;20060;-69
2022/03/14 00:16:08;;;;;;;1.52;0.90;;;;;;;8.25;89.68;99640.38;8366672;28;20111;-70
2022/03/14 00:20:11;;;;;;;0.75;0.75;;;;;;;8.25;90.07;99650.72;8353524;28;20063;-70
2022/03/14 00:24:13;;;;;;;1.92;1.08;;;;;;;8.26;nan;99641.22;8369613;28;20136;-68
2022/03/14 00:28:14;;;;;;;0.70;0.70;;;;;;;8.22;89.77;99655.88;8372582;28;20686;-69
2022/03/14 00:36:36;;;;;;;0.80;0.80;;;;;;;8.14;89.98;99663.56;8393901;22;20061;-68
2022/03/14 00:40:37;;;;;;;3.00;0.80;;;;;;;8.16;90.20;99661.00;8270179;28;20065;-69
2022/03/14 00:44:39;;;;;;;0.77;0.77;;;;;;;8.16;89.93;99663.56;8267855;28;20060;-69
2022/03/14 00:48:40;;;;;;;0.93;0.73;;;;;;;8.13;90.03;99672.19;8269229;28;20057;-70
2022/03/14 00:52:42;;;;;;;0.75;0.75;;;;;;;8.08;90.54;99680.75;8269671;28;20054;-69
2022/03/14 00:56:43;;;;;;;0.73;0.73;;;;;;;8.08;90.51;99681.63;8270338;28;20390;-69
2022/03/14 01:00:47;;;;;;;0.95;0.93;;;;;;;8.01;90.78;99690.16;8268304;28;20145;-69
2022/03/14 01:04:48;;;;;;;0.80;0.80;;;;;;;7.96;90.75;99696.13;8274433;28;20137;-70
2022/03/14 01:08:50;;;;;;;1.10;0.90;;;;;;;7.98;90.59;99699.59;8272536;28;20137;-68
2022/03/14 01:12:52;;;;;;;1.08;0.88;;;;;;;7.97;90.53;99706.47;8275438;28;20427;-68
2022/03/14 01:16:54;;;;;;;0.70;0.70;;;;;;;7.97;90.87;99713.38;8269489;28;20064;-67
2022/03/14 01:20:56;;;;;;;1.27;0.93;;;;;;;7.96;90.87;99720.25;8272473;28;20050;-69
2022/03/14 01:24:57;;;;;;;1.10;0.70;;;;;;;7.94;91.03;99728.84;8273784;28;20049;-67
2022/03/14 01:28:59;;;;;;;0.73;0.73;;;;;;;7.92;91.02;99735.72;8273706;28;20128;-69
2022/03/14 01:33:01;;;;;;;0.60;0.60;;;;;;;7.88;91.00;99738.25;8269270;28;20053;-69
2022/03/14 01:37:03;;;;;;;0.70;0.70;;;;;;;7.83;90.09;99745.09;8273070;28;20117;-68
2022/03/14 01:41:04;;;;;;;0.50;0.50;;;;;;;7.81;90.26;99741.63;8274063;28;20097;-69
2022/03/14 01:45:06;;;;;;;0.63;0.63;;;;;;;7.80;89.90;99751.94;8268311;28;20050;-68
2022/03/14 01:49:09;;;;;;;2.05;0.52;;;;;;;7.77;90.04;99757.09;8271907;28;20445;-67
2022/03/14 01:53:12;;;;;;;0.73;0.73;;;;;;;7.71;89.88;99765.63;8271896;28;20057;-67
2022/03/14 01:57:14;;;;;;;0.40;0.40;;;;;;;7.66;89.64;99766.41;8269563;28;20054;-68
2022/03/14 02:01:15;;;;;;;0.40;0.40;;;;;;;7.62;88.97;99772.41;8265897;28;20585;-69
2022/03/14 02:05:19;;;;;;;1.10;0.30;;;;;;;7.58;88.88;99772.34;8271660;28;20042;-69
2022/03/14 02:09:20;;;;;;;0.30;0.30;;;;;;;7.55;88.46;99785.25;8269394;28;20535;-70
2022/03/14 02:13:23;;;;;;;0.50;0.30;;;;;;;7.49;88.59;99771.34;8271264;28;20141;-70
2022/03/14 02:17:24;;;;;;;0.20;0.20;;;;;;;7.36;87.96;99785.81;8258003;28;20772;-69
2022/03/14 02:21:25;;;;;;;0.27;0.23;;;;;;;7.34;87.75;99786.63;8270703;28;20056;-67
2022/03/14 02:25:27;;;;;;;0.60;0.30;;;;;;;7.33;88.21;99796.09;8264627;28;20379;-69
2022/03/14 02:29:28;;;;;;;0.43;0.40;;;;;;;7.33;88.18;99805.56;8274084;28;20061;-69
2022/03/14 02:33:31;;;;;;;1.23;0.33;;;;;;;7.35;88.26;99814.19;8264989;28;20062;-68
2022/03/14 02:37:32;;;;;;;0.55;0.30;;;;;;;7.33;88.13;99818.47;8273893;28;20054;-70
2022/03/14 02:41:34;;;;;;;0.50;0.20;;;;;;;7.34;87.96;99833.13;8271478;28;20054;-70
2022/03/14 02:45:36;;;;;;;0.20;0.20;;;;;;;7.31;87.74;99840.81;8267316;28;20420;-68
2022/03/14 02:49:38;;;;;;;0.50;0.20;;;;;;;7.32;88.12;99850.31;8273035;28;20050;-68
2022/03/14 02:53:39;;;;;;;0.60;0.20;;;;;;;7.31;88.16;99862.34;8269376;28;20129;-68
2022/03/14 02:57:41;;;;;;;0.43;0.20;;;;;;;7.27;87.87;99863.16;8272890;28;20544;-68
2022/03/14 03:01:42;;;;;;;1.47;0.30;;;;;;;7.28;88.45;99864.91;8269043;28;20072;-68
2022/03/14 03:05:45;;;;;;;1.17;0.30;;;;;;;7.27;88.21;99879.53;8274312;28;20089;-68
2022/03/14 03:09:46;;;;;;;1.30;0.37;;;;;;;7.25;88.34;99891.53;8276814;28;20066;-69
2022/03/14 03:13:48;;;;;;;0.37;0.37;;;;;;;7.23;88.63;99902.69;8275069;28;20593;-69
2022/03/14 03:17:49;;;;;;;0.20;0.20;;;;;;;7.18;88.90;99912.06;8274238;28;20153;-68
2022/03/14 03:21:50;;;;;;;1.37;0.20;;;;;;;7.16;88.83;99909.44;8272493;28;20053;-70
2022/03/14 03:25:52;;;;;;;2.10;0.97;;;;;;;7.16;88.52;99914.59;8275127;28;20141;-69
2022/03/14 03:29:53;;;;;;;2.47;0.40;;;;;;;7.13;88.91;99922.31;8273949;28;20085;-69
2022/03/14 03:33:55;;;;;;;1.30;0.40;;;;;;;7.10;88.97;99939.47;8250494;28;20138;-69
2022/03/14 03:37:56;;;;;;;1.05;0.30;;;;;;;7.08;89.42;99952.34;8239153;28;20137;-68
2022/03/14 03:41:58;;;;;;;0.40;0.20;;;;;;;7.10;89.33;99966.16;8240651;28;20680;-68
2022/03/14 03:46:00;;;;;;;0.53;0.40;;;;;;;7.07;88.72;99966.09;8236352;28;20137;-70
2022/03/14 03:50:01;;;;;;;2.40;0.40;;;;;;;7.05;88.84;99970.38;8259934;28;20150;-68
2022/03/14 03:54:03;;;;;;;1.60;0.40;;;;;;;7.07;89.04;99983.31;8263430;28;20165;-68
2022/03/14 03:58:05;;;;;;;1.47;1.10;;;;;;;7.05;89.34;99990.16;8244491;28;20089;-68
2022/03/14 04:02:08;;;;;;;1.98;0.30;;;;;;;6.98;89.21;100000.34;8282435;28;20057;-68
2022/03/14 04:06:10;;;;;;;0.77;0.40;;;;;;;6.99;89.14;100003.78;8288700;28;20049;-68
2022/03/14 04:10:13;;;;;;;2.40;0.40;;;;;;;6.98;89.02;100013.25;8301726;28;20069;-69
2022/03/14 04:14:15;;;;;;;2.67;0.50;;;;;;;6.95;88.51;100015.78;8301025;28;20149;-69
2022/03/14 04:18:18;;;;;;;1.20;0.30;;;;;;;6.98;88.47;100018.41;8294025;28;20057;-69
2022/03/14 04:22:20;;;;;;;2.47;0.50;;;;;;;7.01;88.45;100016.75;8305248;28;20165;-69
2022/03/14 04:26:21;;;;;;;2.60;0.40;;;;;;;7.03;88.60;100020.25;8305093;28;20042;-69
2022/03/14 04:30:23;;;;;;;1.63;0.40;;;;;;;7.05;87.96;100026.31;8304802;28;20060;-69
2022/03/14 04:34:25;;;;;;;3.13;0.50;;;;;;;7.02;88.01;100024.53;8291799;28;20063;-69
2022/03/14 04:38:27;;;;;;;3.87;0.80;;;;;;;7.00;88.47;100027.91;8299253;28;20137;-69
2022/03/14 04:42:29;;;;;;;3.90;0.40;;;;;;;7.03;88.22;100030.56;8309574;28;20096;-71
2022/03/14 04:46:30;;;;;;;2.90;0.47;;;;;;;7.02;88.26;100032.28;8303074;28;20069;-68
2022/03/14 04:50:34;;;;;;;2.17;0.30;;;;;;;7.00;87.79;100039.09;8310464;28;20076;-72
2022/03/14 04:54:35;;;;;;;3.23;0.47;;;;;;;7.01;87.65;100047.75;8308397;28;20140;-69
2022/03/14 04:58:37;;;;;;;3.37;0.33;;;;;;;6.98;87.58;100051.97;8297113;28;20084;-71
2022/03/14 05:02:39;;;;;;;3.03;0.67;;;;;;;7.02;87.70;100060.69;8271955;28;20049;-70
2022/03/14 05:06:41;;;;;;;0.83;0.43;;;;;;;7.02;87.47;100067.56;8278479;28;20133;-69
2022/03/14 05:10:42;;;;;;;3.55;0.45;;;;;;;7.00;87.21;100070.09;8305204;28;20124;-70
2022/03/14 05:14:44;;;;;;;3.30;0.60;;;;;;;6.99;87.34;100070.91;8302304;28;20078;-69
2022/03/14 05:18:46;;;;;;;1.27;0.40;;;;;;;7.01;87.37;100076.16;8303014;28;20442;-69
2022/03/14 05:22:49;;;;;;;1.20;0.30;;;;;;;7.00;87.06;100079.53;8307388;28;20892;-69
2022/03/14 05:26:53;;;;;;;1.58;0.30;;;;;;;6.98;86.78;100082.09;8308421;28;20140;-69
2022/03/14 05:30:55;;;;;;;4.17;0.80;;;;;;;6.96;86.58;100086.34;8306291;28;20156;-69
2022/03/14 05:34:57;;;;;;;6.90;0.73;;;;;;;6.99;86.53;100083.84;8305616;28;20065;-69
2022/03/14 05:38:58;;;;;;;1.70;0.40;;;;;;;6.98;86.39;100087.25;8304467;28;20050;-70
2022/03/14 05:43:06;;;;;;;1.90;0.50;;;;;;;6.96;86.45;100091.53;8299496;28;20067;-70
2022/03/14 05:47:08;;;;;;;1.77;0.40;;;;;;;6.95;86.33;100098.41;8296296;28;20058;-69
2022/03/14 05:51:10;;;;;;;2.60;0.50;;;;;;;6.96;86.61;100105.28;8284222;28;20059;-70
2022/03/14 05:55:12;;;;;;;1.33;0.30;;;;;;;6.97;86.49;100107.03;8279238;28;20058;-70
2022/03/14 05:59:13;;;;;;;4.75;0.50;;;;;;;6.96;86.70;100119.91;8291834;28;20140;-70
2022/03/14 06:03:15;;;;;;;1.73;0.60;;;;;;;6.97;86.55;100124.25;8287653;28;20108;-70
2022/03/14 06:07:19;;;;;;;3.13;0.40;;;;;;;6.95;87.19;100121.63;8304699;28;20342;-70
2022/03/14 06:11:21;;;;;;;3.73;0.57;;;;;;;6.93;86.98;100128.47;8304954;28;20049;-70
2022/03/14 06:15:23;;;;;;;2.53;0.80;;;;;;;6.96;87.12;100135.41;8303081;28;20137;-69
2022/03/14 06:19:24;;;;;;;1.60;0.60;;;;;;;6.99;86.69;100145.78;8294288;28;20056;-69
2022/03/14 06:23:27;;;;;;;2.00;0.60;;;;;;;7.02;86.51;100155.34;8296723;28;20092;-71
2022/03/14 06:27:29;;;;;;;2.10;0.60;;;;;;;7.04;86.69;100170.03;8295954;28;20046;-71
2022/03/14 06:31:31;;;;;;;0.70;0.50;;;;;;;7.07;87.07;100176.97;8291886;28;20471;-69
2022/03/14 06:35:35;;;;;;;1.27;0.63;;;;;;;7.08;87.17;100184.75;8297587;28;20060;-70
2022/03/14 06:39:37;;;;;;;2.30;0.53;;;;;;;7.09;87.25;100188.19;8283684;28;20050;-71
2022/03/14 06:43:39;;;;;;;5.23;0.90;;;;;;;7.09;87.53;100183.91;8266485;28;20075;-71
2022/03/14 06:47:40;;;;;;;3.80;0.70;;;;;;;7.13;87.37;100195.16;8269748;28;20062;-71
2022/03/14 06:51:42;;;;;;;3.22;0.77;;;;;;;7.15;86.95;100203.81;8273530;28;20049;-72
2022/03/14 06:55:44;;;;;;;2.57;0.93;;;;;;;7.15;86.93;100206.41;8273045;28;20077;-71
2022/03/14 06:59:45;;;;;;;1.80;0.57;;;;;;;7.18;86.70;100209.03;8271921;28;20694;-72
2022/03/14 07:03:47;;;;;;;2.10;0.70;;;;;;;7.21;86.59;100217.75;8284337;28;20062;-72
2022/03/14 07:07:48;;;;;;;1.37;0.50;;;;;;;7.25;85.99;100223.88;8308199;28;20063;-72
2022/03/14 07:11:51;;;;;;;0.70;0.50;;;;;;;7.31;86.08;100233.44;8301913;28;20077;-72
2022/03/14 07:15:53;;;;;;;3.37;0.63;;;;;;;7.36;85.97;100234.41;8243299;28;20081;-71
2022/03/14 07:19:55;;;;;;;6.27;1.03;;;;;;;7.38;85.29;100243.97;8274106;28;20065;-70
2022/03/14 07:23:56;;;;;;;1.23;0.43;;;;;;;7.48;85.28;100248.47;8273997;28;20141;-70
2022/03/14 07:28:01;;;;;;;3.25;0.50;;;;;;;7.73;85.30;100256.78;8281475;28;20144;-70
2022/03/14 07:32:02;;;;;;;1.73;0.50;;;;;;;8.12;84.63;100251.53;8303071;28;20716;-69
2022/03/14 07:36:04;;;;;;;3.40;0.67;;;;;;;8.08;83.01;100257.50;8290253;28;20064;-71
2022/03/14 07:40:10;;;;;;;3.07;0.50;;;;;;;8.27;82.99;100262.16;8283828;28;20084;-72
2022/03/14 07:44:11;;;;;;;3.58;0.70;;;;;;;8.63;82.24;100280.13;8309186;28;20049;-71
2022/03/14 07:48:13;;;;;;;4.82;0.60;;;;;;;8.71;80.93;100285.41;8305064;28;20060;-71
2022/03/14 07:52:15;;;;;;;3.13;0.80;;;;;;;8.64;80.27;100289.63;8306135;28;20054;-72
2022/03/14 07:56:16;;;;;;;1.70;0.80;;;;;;;8.72;79.98;100285.44;8309256;28;20422;-72
2022/03/14 08:00:19;;;;;;;2.55;0.60;;;;;;;8.89;79.80;100290.03;8289235;28;20060;-70
2022/03/14 08:04:22;;;;;;;3.75;0.70;;;;;;;8.87;79.57;100308.16;8296963;28;20158;-70
2022/03/14 08:08:25;;;;;;;4.13;0.95;;;;;;;8.92;79.21;100303.03;8303382;28;20345;-70
2022/03/14 08:12:26;;;;;;;1.80;0.70;;;;;;;8.94;79.28;100312.56;8303903;28;20908;-70
2022/03/14 08:16:28;;;;;;;2.90;0.65;;;;;;;9.07;79.23;100322.28;8306198;28;20057;-72
2022/03/14 08:20:31;;;;;;;1.93;0.80;;;;;;;9.04;78.44;100330.03;8301755;28;20147;-72
2022/03/14 08:24:33;;;;;;;2.67;0.80;;;;;;;9.04;78.05;100330.03;8308184;28;20133;-72
2022/03/14 08:28:35;;;;;;;3.03;0.60;;;;;;;8.95;78.25;100340.22;8296885;28;20042;-71
2022/03/14 08:32:39;;;;;;;5.53;1.45;;;;;;;8.78;78.13;100342.50;8288919;28;20790;-71
2022/03/14 08:36:40;;;;;;;8.23;1.17;;;;;;;8.74;78.62;100342.44;8298801;28;20104;-72
2022/03/14 08:40:42;;;;;;;2.47;0.82;;;;;;;8.72;78.80;100357.06;8279438;28;20129;-72
2022/03/14 08:44:43;;;;;;;6.40;1.00;;;;;;;8.71;79.01;100356.19;8297220;28;20149;-72
2022/03/14 08:48:45;;;;;;;5.00;0.88;;;;;;;8.71;78.31;100357.91;8293067;28;20692;-71
2022/03/14 08:52:47;;;;;;;5.20;1.00;;;;;;;8.72;78.06;100367.41;8294672;28;20446;-72
2022/03/14 08:56:48;;;;;;;2.28;1.00;;;;;;;8.76;78.74;100376.97;8290120;28;20068;-72
2022/03/14 09:00:51;;;;;;;2.53;0.75;;;;;;;8.78;78.30;100378.75;8293236;28;20053;-72
2022/03/14 09:04:52;;;;;;;3.10;1.00;;;;;;;8.78;78.08;100380.47;8295496;28;20111;-72
2022/03/14 09:08:54;;;;;;;4.55;0.70;;;;;;;8.78;77.76;100393.41;8290341;28;20128;-73
2022/03/14 09:12:56;;;;;;;4.43;0.70;;;;;;;8.84;77.70;100400.44;8300499;28;20057;-72
2022/03/14 09:16:58;;;;;;;2.13;0.90;;;;;;;8.90;78.00;100398.84;8295454;28;20132;-72
2022/03/14 09:21:00;;;;;;;4.47;1.63;;;;;;;9.03;77.69;100405.13;8297740;28;20083;-72
2022/03/14 09:25:01;;;;;;;7.07;0.90;;;;;;;9.28;77.87;100411.59;8298279;28;20124;-72
2022/03/14 09:29:04;;;;;;;2.80;0.80;;;;;;;9.50;76.67;100407.63;8292469;28;20454;-72
2022/03/14 09:33:05;;;;;;;;;;;;;;;9.69;76.14;100410.56;8288016;28;20474;-72
2022/03/14 09:37:06;;;;;;;6.47;3.30;;;;;;;9.82;74.50;100403.81;8288810;28;19921;-72
2022/03/14 09:41:08;;;;;;;11.25;8.05;;;;;;;10.06;74.36;100405.06;8269083;28;20068;-72
2022/03/14 09:45:13;;;;;;;3.58;1.45;;;;;;;10.20;72.26;100413.88;8266023;28;20060;-70
2022/03/14 09:49:16;;;;;;;3.70;1.40;;;;;;;10.34;72.09;100422.75;8297077;28;20092;-70
2022/03/14 09:53:18;;;;;;;2.45;0.90;;;;;;;10.74;70.62;100428.44;8298166;28;20053;-70
2022/03/14 09:57:20;;;;;;;3.92;0.70;;;;;;;10.94;69.78;100434.72;8276363;28;20045;-71
2022/03/14 10:01:22;;;;;;;3.92;0.77;;;;;;;11.05;68.42;100442.66;8289221;28;21307;-71
2022/03/14 10:05:24;;;;;;;1.75;0.70;;;;;;;11.40;69.11;100446.47;8291892;28;20144;-72
2022/03/14 10:09:26;;;;;;;1.03;0.47;;;;;;;11.48;66.50;100455.19;8287723;28;20089;-72
2022/03/14 10:13:27;;;;;;;2.13;0.68;;;;;;;11.53;65.61;100462.19;8289202;28;20064;-70
2022/03/14 10:17:29;;;;;;;0.80;0.45;;;;;;;11.61;64.71;100450.09;8272113;28;20061;-71
2022/03/14 10:21:39;;;;;;;1.75;0.68;;;;;;;11.83;64.91;100438.16;8295396;28;20054;-72
2022/03/14 10:25:42;;;;;;;2.00;0.57;;;;;;;12.20;64.90;100447.94;8290408;28;20053;-72
2022/03/14 10:29:48;;;;;;;4.53;1.65;;;;;;;12.38;62.32;100441.97;8292028;28;20050;-71
2022/03/14 10:33:49;;;;;;;7.68;3.92;;;;;;;12.79;62.34;100444.78;8288405;28;20063;-72
2022/03/14 10:37:59;;;;;;;4.28;1.70;;;;;;;13.27;63.91;100445.78;8288860;28;20045;-72
2022/03/14 10:42:08;;;;;;;4.45;1.58;;;;;;;13.29;58.56;100455.38;8293735;28;20053;-72
2022/03/14 10:46:28;;;;;;;2.95;1.02;;;;;;;13.24;58.03;100453.63;8290476;28;20663;-72
2022/03/14 10:50:35;;;;;;;1.67;0.52;;;;;;;13.37;57.71;100446.69;8287285;28;20144;-72
2022/03/14 10:54:38;;;;;;;2.03;0.50;;;;;;;13.25;58.61;100439.69;8277377;28;20059;-72
2022/03/14 10:58:39;;;;;;;1.73;0.40;;;;;;;13.35;58.64;100441.47;8279252;28;20050;-72
2022/03/14 11:03:02;;;;;;;2.20;0.50;;;;;;;13.51;58.65;100455.41;8276760;28;20057;-72
2022/03/14 11:07:04;;;;;;;2.33;0.88;;;;;;;13.27;58.15;100458.81;8292436;28;20058;-72
2022/03/14 11:11:08;;;;;;;1.60;0.40;;;;;;;13.03;58.84;100464.84;8286882;28;20060;-71
2022/03/14 11:15:11;;;;;;;1.95;0.47;;;;;;;12.78;58.35;100448.25;8272124;28;20136;-71
2022/03/14 11:19:13;;;;;;;1.65;0.40;;;;;;;12.59;59.24;100449.91;8291654;28;20511;-71
2022/03/14 11:23:15;;;;;;;1.95;0.32;;;;;;;12.51;58.45;100441.19;8294247;28;20058;-71
2022/03/14 11:27:21;;;;;;;2.10;0.60;;;;;;;12.38;58.39;100449.78;8292017;28;20045;-71
2022/03/14 11:31:23;;;;;;;2.72;1.65;;;;;;;12.26;58.21;100452.34;8279929;28;20646;-71
2022/03/14 11:35:25;;;;;;;0.80;0.30;;;;;;;12.11;57.84;100460.94;8298256;28;20068;-71
2022/03/14 11:39:28;;;;;;;2.60;0.43;;;;;;;12.42;58.78;100454.19;8291238;28;20695;-71
2022/03/14 11:43:30;;;;;;;2.13;0.30;;;;;;;12.61;57.68;100450.78;8291902;28;20050;-72
2022/03/14 11:47:32;;;;;;;1.60;1.20;;;;;;;12.81;56.13;100458.69;8287527;28;20058;-72
2022/03/14 11:51:41;;;;;;;2.83;0.57;;;;;;;12.90;57.57;100463.03;8299246;28;20077;-71
2022/03/14 11:55:57;;;;;;;14.23;7.90;;;;;;;12.86;56.03;100462.16;8299408;28;20053;-71
2022/03/14 12:00:21;;;;;;;11.82;7.55;;;;;;;12.81;55.11;100461.28;8293624;28;20161;-71
2022/03/14 12:04:31;;;;;;;4.65;1.90;;;;;;;12.95;54.15;100458.75;8293944;28;20703;-71
2022/03/14 12:08:36;;;;;;;1.60;0.50;;;;;;;12.89;53.49;100462.19;8292587;28;20053;-71
2022/03/14 12:12:49;;;;;;;0.50;0.50;;;;;;;12.77;54.34;100466.50;8277328;28;20045;-72
2022/03/14 12:16:51;;;;;;;1.60;0.40;;;;;;;12.66;53.08;100456.88;8296989;28;20506;-72
2022/03/14 12:20:54;;;;;;;1.40;0.30;;;;;;;12.50;53.63;100451.59;8275362;28;20061;-71
2022/03/14 12:24:57;;;;;;;13.05;10.30;;;;;;;12.49;53.67;100450.72;8278437;28;20273;-71
2022/03/14 12:29:18;;;;;;;;;;;;;;;12.55;52.03;100447.28;8300716;28;20052;-71
2022/03/14 12:33:34;;;;;;;1.65;0.50;;;;;;;12.70;53.21;100444.72;8296850;28;19925;-71
2022/03/14 12:37:42;;;;;;;0.73;0.30;;;;;;;12.89;53.31;100443.06;8300870;28;20101;-71
2022/03/14 12:41:44;;;;;;;1.38;0.80;;;;;;;13.08;52.83;100431.81;8305254;28;20053;-71
2022/03/14 12:45:52;;;;;;;0.70;0.30;;;;;;;13.26;52.24;100425.78;8298864;28;20140;-71
2022/03/14 12:49:53;;;;;;;1.75;0.30;;;;;;;13.36;52.09;100437.13;8277876;28;20053;-72
2022/03/14 12:53:59;;;;;;;2.60;0.20;;;;;;;13.85;52.91;100441.47;8293204;28;20061;-71
2022/03/14 12:58:01;;;;;;;1.48;0.30;;;;;;;14.05;50.65;100446.69;8305176;28;20042;-71
2022/03/14 13:02:03;;;;;;;1.45;0.30;;;;;;;14.47;51.11;100445.72;8306092;28;20057;-71
2022/03/14 13:06:07;;;;;;;0.90;0.40;;;;;;;14.89;48.97;100440.31;8307852;28;20077;-72
2022/03/14 13:10:08;;;;;;;1.23;0.40;;;;;;;15.03;47.69;100428.03;8291486;28;20445;-71
2022/03/14 13:14:14;;;;;;;2.03;0.25;;;;;;;15.14;46.59;100434.09;8306217;28;20073;-71
2022/03/14 13:18:21;;;;;;;1.38;0.43;;;;;;;15.38;45.60;100436.53;8299302;28;20060;-71
2022/03/14 13:22:23;;;;;;;1.23;0.30;;;;;;;15.16;45.07;100434.94;8306532;28;20049;-71
2022/03/14 13:26:25;;;;;;;0.45;0.25;;;;;;;14.95;46.90;100440.31;8309023;28;20096;-71
2022/03/14 13:30:43;;;;;;;0.43;0.20;;;;;;;14.72;47.10;100436.06;8290991;28;20049;-71
2022/03/14 13:35:03;;;;;;;1.23;0.20;;;;;;;14.46;47.47;100430.91;8301573;28;20448;-70
2022/03/14 13:39:08;;;;;;;1.35;0.30;;;;;;;14.48;48.28;100423.94;8307585;28;20042;-72
2022/03/14 13:43:09;;;;;;;0.98;0.35;;;;;;;14.47;48.20;100413.50;8305401;28;20053;-71
2022/03/14 13:47:12;;;;;;;3.90;0.40;;;;;;;14.46;49.61;100409.16;8301540;28;20337;-71
2022/03/14 13:51:14;;;;;;;2.30;0.38;;;;;;;14.44;49.26;100413.50;8291187;28;20053;-71
2022/03/14 13:55:16;;;;;;;1.23;0.30;;;;;;;14.33;47.04;100396.97;8297796;28;20069;-72
2022/03/14 13:59:32;;;;;;;2.50;0.57;;;;;;;14.17;47.88;100410.06;8287408;28;20084;-71
2022/03/14 14:03:35;;;;;;;1.10;0.30;;;;;;;14.17;48.11;100411.81;8292429;28;20081;-71
2022/03/14 14:07:57;;;;;;;2.60;0.35;;;;;;;14.31;47.09;100411.78;8287835;28;20778;-71
2022/03/14 14:12:01;;;;;;;0.40;0.22;;;;;;;14.28;48.01;100419.63;8291370;28;20058;-71
2022/03/14 14:16:15;;;;;;;0.95;0.30;;;;;;;14.25;48.74;100412.66;8287078;28;20080;-71
2022/03/14 14:20:21;;;;;;;1.13;0.30;;;;;;;14.51;47.80;100410.84;8290276;28;20545;-71
2022/03/14 14:24:23;;;;;;;2.55;0.40;;;;;;;14.88;46.69;100410.69;8285834;28;20156;-71
2022/03/14 14:28:26;;;;;;;0.90;0.35;;;;;;;15.15;45.36;100420.13;8300865;28;20058;-71
2022/03/14 14:32:31;;;;;;;0.68;0.30;;;;;;;15.21;44.94;100432.28;8283297;28;20092;-72
2022/03/14 14:36:35;;;;;;;2.83;0.40;;;;;;;15.16;45.48;100431.47;8285086;28;20057;-71
2022/03/14 14:40:42;;;;;;;1.25;0.30;;;;;;;15.14;44.35;100428.84;8287252;28;20088;-71
2022/03/14 14:44:43;;;;;;;1.20;0.45;;;;;;;15.02;45.13;100435.00;8270333;28;20054;-71
2022/03/14 14:48:47;;;;;;;1.17;0.50;;;;;;;14.88;45.39;100443.81;8286462;28;20058;-72
2022/03/14 14:52:49;;;;;;;1.60;0.32;;;;;;;14.69;44.68;100438.66;8271452;28;20589;-71
2022/03/14 14:56:51;;;;;;;2.20;0.20;;;;;;;14.65;46.63;100444.78;8292688;28;20057;-71
2022/03/14 15:00:54;;;;;;;1.80;0.70;;;;;;;14.63;45.89;100427.38;8294374;28;20096;-71
2022/03/14 15:04:56;;;;;;;1.95;0.60;;;;;;;14.52;47.07;100430.03;8300935;28;20108;-71
2022/03/14 15:08:58;;;;;;;2.05;0.25;;;;;;;14.35;46.46;100423.94;8284046;28;20060;-71
2022/03/14 15:12:59;;;;;;;2.00;0.50;;;;;;;14.26;47.44;100422.25;8269051;28;20096;-72
2022/03/14 15:17:01;;;;;;;1.63;0.47;;;;;;;14.25;47.84;100414.41;8257675;28;20085;-70
2022/03/14 15:21:03;;;;;;;1.25;0.40;;;;;;;14.23;48.59;100418.78;8284847;28;20050;-70
2022/03/14 15:25:06;;;;;;;1.00;0.30;;;;;;;14.46;48.10;100422.22;8286139;28;20137;-71
2022/03/14 15:29:08;;;;;;;1.08;0.40;;;;;;;14.51;47.05;100418.69;8270211;28;20129;-71
2022/03/14 15:33:10;;;;;;;0.70;0.20;;;;;;;14.40;47.16;100412.63;8284743;28;20064;-71
2022/03/14 15:37:12;;;;;;;0.52;0.20;;;;;;;14.45;46.90;100407.41;8285017;28;20068;-71
2022/03/14 15:41:13;;;;;;;0.57;0.30;;;;;;;14.59;46.65;100403.00;8273730;28;20137;-72
2022/03/14 15:45:15;;;;;;;3.00;0.50;;;;;;;14.82;46.38;100398.53;8283179;28;20155;-71
2022/03/14 15:49:16;;;;;;;1.13;0.33;;;;;;;15.03;45.15;100394.91;8288796;28;20328;-71
2022/03/14 15:53:18;;;;;;;1.30;0.60;;;;;;;15.63;44.67;100390.13;8286586;28;20433;-70
2022/03/14 15:57:19;;;;;;;1.77;0.60;;;;;;;18.07;39.41;100392.00;8286448;28;20142;-71
2022/03/14 16:01:21;;;;;;;3.23;0.40;;;;;;;19.20;35.98;100386.97;8280499;28;20287;-71
2022/03/14 16:05:23;;;;;;;2.15;0.43;;;;;;;19.58;34.57;100388.72;8269231;28;20069;-71
2022/03/14 16:09:24;;;;;;;1.60;0.60;;;;;;;20.52;33.34;100379.16;8287065;28;20674;-71
2022/03/14 16:13:31;;;;;;;;;;;;;;;20.01;34.28;100381.47;8286200;28;20119;-71
2022/03/14 16:17:32;;;;;;;3.58;0.40;;;;;;;20.93;33.24;100382.31;8285377;28;19925;-71
2022/03/14 16:21:35;;;;;;;1.08;0.40;;;;;;;22.26;30.57;100391.97;8292001;28;20050;-71
2022/03/14 16:25:37;;;;;;;2.60;0.50;;;;;;;23.33;28.53;100383.44;8276599;28;20054;-71
2022/03/14 16:29:39;;;;;;;1.02;0.50;;;;;;;24.16;27.81;100398.50;8297339;28;20045;-71
2022/03/14 16:33:45;;;;;;;1.27;0.50;;;;;;;25.08;26.17;100392.53;8300988;28;20081;-71
2022/03/14 16:37:46;;;;;;;1.88;0.45;;;;;;;25.42;27.27;100387.28;8302532;28;20748;-72
2022/03/14 16:41:48;;;;;;;;;;;;;;;23.05;29.23;100393.44;8308293;28;20136;-73
2022/03/14 16:45:49;;;;;;;2.20;0.50;;;;;;;20.19;32.51;100405.56;8300461;28;19939;-71
2022/03/14 16:49:51;;;;;;;3.83;0.55;;;;;;;18.17;35.99;100397.97;8304615;28;20099;-72
2022/03/14 16:53:52;;;;;;;0.90;0.30;;;;;;;16.56;39.93;100407.47;8302268;28;20096;-72
2022/03/14 16:57:55;;;;;;;4.75;0.88;;;;;;;15.32;43.38;100405.19;8305098;28;20100;-71
2022/03/14 17:01:56;;;;;;;3.88;0.40;;;;;;;14.32;45.76;100397.84;8284368;28;20061;-71
2022/03/14 17:05:58;;;;;;;4.10;0.37;;;;;;;13.57;47.37;100392.75;8302915;28;20057;-71
2022/03/14 17:09:59;;;;;;;4.95;0.30;;;;;;;12.99;48.64;100396.19;8304497;28;20424;-71
2022/03/14 17:14:01;;;;;;;2.72;0.40;;;;;;;12.63;49.38;100406.50;8284473;28;20144;-71
2022/03/14 17:18:04;;;;;;;2.53;0.40;;;;;;;12.16;53.05;100406.28;8284872;28;20061;-71
2022/03/14 17:22:06;;;;;;;2.78;0.40;;;;;;;11.83;55.08;100420.81;8300015;28;20307;-71
2022/03/14 17:26:09;;;;;;;2.73;0.50;;;;;;;11.50;55.90;100424.03;8282362;28;20729;-71
2022/03/14 17:30:11;;;;;;;3.92;0.70;;;;;;;11.12;57.77;100410.66;8297028;28;20580;-71
2022/03/14 17:34:13;;;;;;;;;;;;;;;10.76;58.98;100414.59;8290698;28;20045;-71
2022/03/14 17:38:14;;;;;;;5.10;0.30;;;;;;;10.59;57.70;100405.75;8291702;28;20036;-71
2022/03/14 17:42:16;;;;;;;2.40;0.43;;;;;;;10.54;57.22;100408.28;8293312;28;20049;-71
2022/03/14 17:46:17;;;;;;;2.03;0.55;;;;;;;10.50;56.78;100409.13;8286688;28;20053;-71
2022/03/14 17:50:21;;;;;;;0.93;0.50;;;;;;;10.42;57.44;100409.88;8271827;28;20051;-71
2022/03/14 17:54:22;;;;;;;1.60;0.40;;;;;;;10.40;57.31;100422.81;8283229;28;20168;-71
2022/03/14 17:58:25;;;;;;;2.08;0.60;;;;;;;10.31;58.52;100430.50;8281551;28;20141;-71
2022/03/14 18:02:26;;;;;;;0.63;0.40;;;;;;;10.00;60.63;100429.16;8273567;28;20057;-71
2022/03/14 18:06:28;;;;;;;1.77;0.30;;;;;;;9.70;62.67;100421.81;8274309;28;20050;-71
2022/03/14 18:10:36;;;;;;;2.17;0.70;;;;;;;9.45;62.17;100428.31;8285423;28;20410;-71
2022/03/14 18:14:37;;;;;;;3.72;1.70;;;;;;;9.41;62.29;100436.00;8261770;28;20572;-71
2022/03/14 18:18:40;;;;;;;8.20;0.65;;;;;;;9.28;64.27;100445.28;8278416;28;20082;-71
2022/03/14 18:22:41;;;;;;;1.10;0.40;;;;;;;9.07;65.16;100448.38;8286126;28;20502;-71
2022/03/14 18:26:43;;;;;;;2.20;0.40;;;;;;;8.94;66.30;100457.63;8295849;28;20137;-71
2022/03/14 18:30:44;;;;;;;2.70;0.57;;;;;;;8.73;66.85;100457.19;8291576;28;20136;-71
2022/03/14 18:34:48;;;;;;;2.05;0.60;;;;;;;8.63;67.64;100460.47;8297331;28;20081;-71
2022/03/14 18:38:50;;;;;;;4.70;0.60;;;;;;;8.51;68.43;100462.78;8297933;28;20571;-71
2022/03/14 18:42:51;;;;;;;3.58;0.77;;;;;;;8.40;68.90;100470.31;8295601;28;20087;-71
2022/03/14 18:46:53;;;;;;;2.63;0.90;;;;;;;8.26;69.54;100474.25;8300483;28;20065;-71
2022/03/14 18:50:55;;;;;;;4.15;1.50;;;;;;;8.09;70.09;100479.97;8297094;28;20555;-71
2022/03/14 18:54:56;;;;;;;6.25;0.90;;;;;;;7.93;70.75;100476.97;8283047;28;20071;-71
2022/03/14 18:58:58;;;;;;;3.55;0.60;;;;;;;7.73;71.14;100479.97;8298730;28;20055;-71
2022/03/14 19:03:00;;;;;;;5.17;0.80;;;;;;;7.60;71.70;100489.94;8297704;28;20068;-73
2022/03/14 19:07:03;;;;;;;2.22;0.70;;;;;;;7.44;72.73;100481.81;8299118;28;20490;-72